sensor_id;sensor_type;location;lat;lon;timestamp;P1;durP1;ratioP1;P2;durP2;ratioP2
39410;SDS011;26579;43.238;23.124;2023-10-19T00:01:21;5.65;;;3.60;;
39410;SDS011;26579;43.238;23.124;2023-10-19T00:03:47;7.30;;;3.92;;
39410;SDS011;26579;43.238;23.124;2023-10-19T00:06:12;5.60;;;3.97;;
39410;SDS011;26579;43.238;23.124;2023-10-19T00:08:38;8.00;;;4.90;;
39410;SDS011;26579;43.238;23.124;2023-10-19T00:11:04;8.90;;;5.45;;
39410;SDS011;26579;43.238;23.124;2023-10-19T00:13:29;9.23;;;4.75;;
39410;SDS011;26579;43.238;23.124;2023-10-19T00:15:56;10.60;;;5.57;;
39410;SDS011;26579;43.238;23.124;2023-10-19T00:18:22;12.93;;;6.40;;
39410;SDS011;26579;43.238;23.124;2023-10-19T00:20:48;16.60;;;8.20;;
39410;SDS011;26579;43.238;23.124;2023-10-19T00:23:18;14.60;;;6.60;;
39410;SDS011;26579;43.238;23.124;2023-10-19T00:25:45;11.75;;;5.82;;
39410;SDS011;26579;43.238;23.124;2023-10-19T00:28:11;12.73;;;5.80;;
39410;SDS011;26579;43.238;23.124;2023-10-19T00:30:36;11.18;;;5.88;;
39410;SDS011;26579;43.238;23.124;2023-10-19T00:33:02;10.55;;;5.75;;
39410;SDS011;26579;43.238;23.124;2023-10-19T00:35:28;10.00;;;5.20;;
39410;SDS011;26579;43.238;23.124;2023-10-19T00:37:54;10.95;;;4.97;;
39410;SDS011;26579;43.238;23.124;2023-10-19T00:40:21;6.97;;;4.40;;
39410;SDS011;26579;43.238;23.124;2023-10-19T00:42:47;7.25;;;4.15;;
39410;SDS011;26579;43.238;23.124;2023-10-19T00:45:12;7.32;;;4.60;;
39410;SDS011;26579;43.238;23.124;2023-10-19T00:47:38;7.00;;;3.50;;
39410;SDS011;26579;43.238;23.124;2023-10-19T00:50:04;6.00;;;3.25;;
39410;SDS011;26579;43.238;23.124;2023-10-19T00:52:30;6.53;;;4.00;;
39410;SDS011;26579;43.238;23.124;2023-10-19T00:54:58;6.82;;;4.38;;
39410;SDS011;26579;43.238;23.124;2023-10-19T00:57:23;5.43;;;3.83;;
39410;SDS011;26579;43.238;23.124;2023-10-19T00:59:50;5.28;;;3.90;;
39410;SDS011;26579;43.238;23.124;2023-10-19T01:02:17;6.10;;;4.15;;
39410;SDS011;26579;43.238;23.124;2023-10-19T01:04:43;9.52;;;6.20;;
39410;SDS011;26579;43.238;23.124;2023-10-19T01:07:10;7.57;;;4.82;;
39410;SDS011;26579;43.238;23.124;2023-10-19T01:09:36;7.43;;;4.38;;
39410;SDS011;26579;43.238;23.124;2023-10-19T01:12:02;8.05;;;4.50;;
39410;SDS011;26579;43.238;23.124;2023-10-19T01:14:29;7.78;;;4.47;;
39410;SDS011;26579;43.238;23.124;2023-10-19T01:16:55;8.52;;;4.07;;
39410;SDS011;26579;43.238;23.124;2023-10-19T01:19:21;7.10;;;4.97;;
39410;SDS011;26579;43.238;23.124;2023-10-19T01:21:46;7.10;;;4.25;;
39410;SDS011;26579;43.238;23.124;2023-10-19T01:24:12;6.32;;;4.05;;
39410;SDS011;26579;43.238;23.124;2023-10-19T01:26:37;5.30;;;3.65;;
39410;SDS011;26579;43.238;23.124;2023-10-19T01:29:03;5.70;;;3.90;;
39410;SDS011;26579;43.238;23.124;2023-10-19T01:31:29;5.70;;;3.67;;
39410;SDS011;26579;43.238;23.124;2023-10-19T01:33:55;6.10;;;3.88;;
39410;SDS011;26579;43.238;23.124;2023-10-19T01:36:24;5.82;;;3.40;;
39410;SDS011;26579;43.238;23.124;2023-10-19T01:38:51;5.25;;;3.58;;
39410;SDS011;26579;43.238;23.124;2023-10-19T01:41:18;7.35;;;4.25;;
39410;SDS011;26579;43.238;23.124;2023-10-19T01:43:46;5.82;;;3.78;;
39410;SDS011;26579;43.238;23.124;2023-10-19T01:46:16;6.05;;;4.15;;
39410;SDS011;26579;43.238;23.124;2023-10-19T01:48:42;5.53;;;3.55;;
39410;SDS011;26579;43.238;23.124;2023-10-19T01:51:09;5.78;;;3.58;;
39410;SDS011;26579;43.238;23.124;2023-10-19T01:53:39;7.10;;;3.83;;
39410;SDS011;26579;43.238;23.124;2023-10-19T01:56:06;6.93;;;4.05;;
39410;SDS011;26579;43.238;23.124;2023-10-19T01:58:32;6.03;;;3.30;;
39410;SDS011;26579;43.238;23.124;2023-10-19T02:00:57;6.47;;;4.07;;
39410;SDS011;26579;43.238;23.124;2023-10-19T02:03:23;5.65;;;3.70;;
39410;SDS011;26579;43.238;23.124;2023-10-19T02:05:49;6.68;;;3.97;;
39410;SDS011;26579;43.238;23.124;2023-10-19T02:08:14;5.68;;;3.42;;
39410;SDS011;26579;43.238;23.124;2023-10-19T02:10:40;5.97;;;3.33;;
39410;SDS011;26579;43.238;23.124;2023-10-19T02:13:11;7.22;;;3.33;;
39410;SDS011;26579;43.238;23.124;2023-10-19T02:15:37;5.68;;;3.40;;
39410;SDS011;26579;43.238;23.124;2023-10-19T02:18:04;5.20;;;3.08;;
39410;SDS011;26579;43.238;23.124;2023-10-19T02:20:30;7.65;;;3.13;;
39410;SDS011;26579;43.238;23.124;2023-10-19T02:22:56;8.38;;;3.83;;
39410;SDS011;26579;43.238;23.124;2023-10-19T02:25:21;5.88;;;3.17;;
39410;SDS011;26579;43.238;23.124;2023-10-19T02:27:47;6.75;;;3.40;;
39410;SDS011;26579;43.238;23.124;2023-10-19T02:30:13;5.65;;;3.45;;
39410;SDS011;26579;43.238;23.124;2023-10-19T02:32:39;5.78;;;3.47;;
39410;SDS011;26579;43.238;23.124;2023-10-19T02:35:04;5.07;;;3.05;;
39410;SDS011;26579;43.238;23.124;2023-10-19T02:37:30;7.18;;;3.65;;
39410;SDS011;26579;43.238;23.124;2023-10-19T02:39:56;5.63;;;3.25;;
39410;SDS011;26579;43.238;23.124;2023-10-19T02:42:22;5.88;;;3.40;;
39410;SDS011;26579;43.238;23.124;2023-10-19T02:44:48;5.07;;;3.28;;
39410;SDS011;26579;43.238;23.124;2023-10-19T02:47:13;4.45;;;3.33;;
39410;SDS011;26579;43.238;23.124;2023-10-19T02:49:39;4.57;;;3.20;;
39410;SDS011;26579;43.238;23.124;2023-10-19T02:52:05;5.40;;;3.47;;
39410;SDS011;26579;43.238;23.124;2023-10-19T02:54:31;4.38;;;3.05;;
39410;SDS011;26579;43.238;23.124;2023-10-19T02:56:57;5.50;;;2.95;;
39410;SDS011;26579;43.238;23.124;2023-10-19T02:59:23;5.35;;;3.22;;
39410;SDS011;26579;43.238;23.124;2023-10-19T03:01:50;5.32;;;3.58;;
39410;SDS011;26579;43.238;23.124;2023-10-19T03:04:23;5.20;;;3.50;;
39410;SDS011;26579;43.238;23.124;2023-10-19T03:06:49;6.05;;;4.13;;
39410;SDS011;26579;43.238;23.124;2023-10-19T03:09:15;4.85;;;3.22;;
39410;SDS011;26579;43.238;23.124;2023-10-19T03:11:41;6.90;;;4.38;;
39410;SDS011;26579;43.238;23.124;2023-10-19T03:14:09;23.30;;;14.30;;
39410;SDS011;26579;43.238;23.124;2023-10-19T03:16:36;10.15;;;6.43;;
39410;SDS011;26579;43.238;23.124;2023-10-19T03:19:02;5.78;;;4.38;;
39410;SDS011;26579;43.238;23.124;2023-10-19T03:21:28;5.47;;;3.60;;
39410;SDS011;26579;43.238;23.124;2023-10-19T03:23:54;5.25;;;3.08;;
39410;SDS011;26579;43.238;23.124;2023-10-19T03:26:20;5.03;;;3.53;;
39410;SDS011;26579;43.238;23.124;2023-10-19T03:28:45;6.07;;;3.40;;
39410;SDS011;26579;43.238;23.124;2023-10-19T03:31:11;5.57;;;3.50;;
39410;SDS011;26579;43.238;23.124;2023-10-19T03:33:36;5.80;;;3.33;;
39410;SDS011;26579;43.238;23.124;2023-10-19T03:36:03;5.70;;;3.17;;
39410;SDS011;26579;43.238;23.124;2023-10-19T03:38:29;6.25;;;3.30;;
39410;SDS011;26579;43.238;23.124;2023-10-19T03:40:56;7.13;;;3.42;;
39410;SDS011;26579;43.238;23.124;2023-10-19T03:43:21;5.28;;;3.45;;
39410;SDS011;26579;43.238;23.124;2023-10-19T03:45:47;6.45;;;3.35;;
39410;SDS011;26579;43.238;23.124;2023-10-19T03:48:13;4.93;;;3.50;;
39410;SDS011;26579;43.238;23.124;2023-10-19T03:50:38;5.43;;;3.45;;
39410;SDS011;26579;43.238;23.124;2023-10-19T03:53:04;6.18;;;3.42;;
39410;SDS011;26579;43.238;23.124;2023-10-19T03:55:30;5.38;;;3.78;;
39410;SDS011;26579;43.238;23.124;2023-10-19T03:57:55;7.00;;;3.58;;
39410;SDS011;26579;43.238;23.124;2023-10-19T04:00:21;5.15;;;3.75;;
39410;SDS011;26579;43.238;23.124;2023-10-19T04:02:47;5.72;;;3.72;;
39410;SDS011;26579;43.238;23.124;2023-10-19T04:05:13;4.95;;;3.45;;
39410;SDS011;26579;43.238;23.124;2023-10-19T04:07:38;5.40;;;3.78;;
39410;SDS011;26579;43.238;23.124;2023-10-19T04:10:04;6.75;;;3.72;;
39410;SDS011;26579;43.238;23.124;2023-10-19T04:12:30;4.63;;;3.28;;
39410;SDS011;26579;43.238;23.124;2023-10-19T04:14:56;9.05;;;4.10;;
39410;SDS011;26579;43.238;23.124;2023-10-19T04:17:22;5.70;;;3.30;;
39410;SDS011;26579;43.238;23.124;2023-10-19T04:19:49;7.50;;;4.35;;
39410;SDS011;26579;43.238;23.124;2023-10-19T04:22:15;8.68;;;4.50;;
39410;SDS011;26579;43.238;23.124;2023-10-19T04:24:41;8.35;;;6.00;;
39410;SDS011;26579;43.238;23.124;2023-10-19T04:27:06;7.18;;;4.20;;
39410;SDS011;26579;43.238;23.124;2023-10-19T04:29:32;6.38;;;4.20;;
39410;SDS011;26579;43.238;23.124;2023-10-19T04:31:58;7.25;;;4.05;;
39410;SDS011;26579;43.238;23.124;2023-10-19T04:34:23;6.75;;;4.03;;
39410;SDS011;26579;43.238;23.124;2023-10-19T04:36:49;6.35;;;3.97;;
39410;SDS011;26579;43.238;23.124;2023-10-19T04:39:16;7.32;;;4.40;;
39410;SDS011;26579;43.238;23.124;2023-10-19T04:41:42;6.65;;;4.63;;
39410;SDS011;26579;43.238;23.124;2023-10-19T04:44:07;5.00;;;3.28;;
39410;SDS011;26579;43.238;23.124;2023-10-19T04:46:33;5.95;;;3.83;;
39410;SDS011;26579;43.238;23.124;2023-10-19T04:48:59;9.13;;;4.68;;
39410;SDS011;26579;43.238;23.124;2023-10-19T04:51:25;13.13;;;5.47;;
39410;SDS011;26579;43.238;23.124;2023-10-19T04:53:51;9.65;;;4.93;;
39410;SDS011;26579;43.238;23.124;2023-10-19T04:56:17;10.07;;;5.65;;
39410;SDS011;26579;43.238;23.124;2023-10-19T04:58:43;10.77;;;6.03;;
39410;SDS011;26579;43.238;23.124;2023-10-19T05:01:08;10.32;;;6.75;;
39410;SDS011;26579;43.238;23.124;2023-10-19T05:03:34;11.95;;;6.50;;
39410;SDS011;26579;43.238;23.124;2023-10-19T05:06:00;10.50;;;6.70;;
39410;SDS011;26579;43.238;23.124;2023-10-19T05:08:25;17.42;;;8.63;;
39410;SDS011;26579;43.238;23.124;2023-10-19T05:10:52;26.00;;;10.68;;
39410;SDS011;26579;43.238;23.124;2023-10-19T05:13:18;18.98;;;9.52;;
39410;SDS011;26579;43.238;23.124;2023-10-19T05:15:44;9.60;;;5.75;;
39410;SDS011;26579;43.238;23.124;2023-10-19T05:18:09;10.43;;;6.55;;
39410;SDS011;26579;43.238;23.124;2023-10-19T05:20:35;17.58;;;7.20;;
39410;SDS011;26579;43.238;23.124;2023-10-19T05:23:01;15.10;;;6.78;;
39410;SDS011;26579;43.238;23.124;2023-10-19T05:25:26;13.18;;;6.38;;
39410;SDS011;26579;43.238;23.124;2023-10-19T05:27:52;12.35;;;6.95;;
39410;SDS011;26579;43.238;23.124;2023-10-19T05:30:18;15.85;;;8.55;;
39410;SDS011;26579;43.238;23.124;2023-10-19T05:32:43;11.02;;;6.68;;
39410;SDS011;26579;43.238;23.124;2023-10-19T05:35:09;11.10;;;6.72;;
39410;SDS011;26579;43.238;23.124;2023-10-19T05:37:35;17.75;;;8.68;;
39410;SDS011;26579;43.238;23.124;2023-10-19T05:40:00;19.42;;;10.25;;
39410;SDS011;26579;43.238;23.124;2023-10-19T05:42:26;29.50;;;13.57;;
39410;SDS011;26579;43.238;23.124;2023-10-19T05:44:52;26.42;;;12.30;;
39410;SDS011;26579;43.238;23.124;2023-10-19T05:47:17;26.75;;;13.32;;
39410;SDS011;26579;43.238;23.124;2023-10-19T05:49:43;28.95;;;14.60;;
39410;SDS011;26579;43.238;23.124;2023-10-19T05:52:09;28.95;;;14.93;;
39410;SDS011;26579;43.238;23.124;2023-10-19T05:54:35;38.90;;;17.88;;
39410;SDS011;26579;43.238;23.124;2023-10-19T05:57:00;37.92;;;18.23;;
39410;SDS011;26579;43.238;23.124;2023-10-19T05:59:26;35.28;;;17.88;;
39410;SDS011;26579;43.238;23.124;2023-10-19T06:01:52;30.83;;;15.38;;
39410;SDS011;26579;43.238;23.124;2023-10-19T06:04:18;36.83;;;21.35;;
39410;SDS011;26579;43.238;23.124;2023-10-19T06:06:44;32.35;;;19.13;;
39410;SDS011;26579;43.238;23.124;2023-10-19T06:09:09;30.75;;;18.77;;
39410;SDS011;26579;43.238;23.124;2023-10-19T06:11:35;32.75;;;17.77;;
39410;SDS011;26579;43.238;23.124;2023-10-19T06:14:01;36.50;;;18.90;;
39410;SDS011;26579;43.238;23.124;2023-10-19T06:16:26;29.48;;;16.42;;
39410;SDS011;26579;43.238;23.124;2023-10-19T06:18:52;31.27;;;20.45;;
39410;SDS011;26579;43.238;23.124;2023-10-19T06:21:18;40.63;;;21.25;;
39410;SDS011;26579;43.238;23.124;2023-10-19T06:23:44;30.35;;;18.70;;
39410;SDS011;26579;43.238;23.124;2023-10-19T06:26:10;39.65;;;22.25;;
39410;SDS011;26579;43.238;23.124;2023-10-19T06:28:36;33.88;;;20.92;;
39410;SDS011;26579;43.238;23.124;2023-10-19T06:31:02;32.25;;;17.60;;
39410;SDS011;26579;43.238;23.124;2023-10-19T06:33:28;29.35;;;18.50;;
39410;SDS011;26579;43.238;23.124;2023-10-19T06:35:53;41.63;;;24.23;;
39410;SDS011;26579;43.238;23.124;2023-10-19T06:38:19;31.73;;;19.00;;
39410;SDS011;26579;43.238;23.124;2023-10-19T06:40:45;33.45;;;22.13;;
39410;SDS011;26579;43.238;23.124;2023-10-19T06:43:10;25.58;;;17.77;;
39410;SDS011;26579;43.238;23.124;2023-10-19T06:45:36;31.40;;;18.27;;
39410;SDS011;26579;43.238;23.124;2023-10-19T06:48:02;27.05;;;16.55;;
39410;SDS011;26579;43.238;23.124;2023-10-19T06:50:28;41.63;;;25.10;;
39410;SDS011;26579;43.238;23.124;2023-10-19T06:52:53;38.67;;;23.27;;
39410;SDS011;26579;43.238;23.124;2023-10-19T06:55:19;26.30;;;16.88;;
39410;SDS011;26579;43.238;23.124;2023-10-19T06:57:46;34.17;;;20.08;;
39410;SDS011;26579;43.238;23.124;2023-10-19T07:00:14;34.25;;;16.55;;
39410;SDS011;26579;43.238;23.124;2023-10-19T07:02:42;31.95;;;18.65;;
39410;SDS011;26579;43.238;23.124;2023-10-19T07:05:09;32.22;;;18.85;;
39410;SDS011;26579;43.238;23.124;2023-10-19T07:07:36;29.90;;;22.25;;
39410;SDS011;26579;43.238;23.124;2023-10-19T07:10:04;32.50;;;19.65;;
39410;SDS011;26579;43.238;23.124;2023-10-19T07:12:30;37.08;;;19.38;;
39410;SDS011;26579;43.238;23.124;2023-10-19T07:14:56;34.83;;;19.10;;
39410;SDS011;26579;43.238;23.124;2023-10-19T07:17:21;30.55;;;19.40;;
39410;SDS011;26579;43.238;23.124;2023-10-19T07:19:47;34.15;;;17.38;;
39410;SDS011;26579;43.238;23.124;2023-10-19T07:22:13;25.77;;;17.02;;
39410;SDS011;26579;43.238;23.124;2023-10-19T07:24:38;28.00;;;16.83;;
39410;SDS011;26579;43.238;23.124;2023-10-19T07:27:04;20.33;;;12.05;;
39410;SDS011;26579;43.238;23.124;2023-10-19T07:29:31;18.35;;;11.13;;
39410;SDS011;26579;43.238;23.124;2023-10-19T07:31:57;10.30;;;7.00;;
39410;SDS011;26579;43.238;23.124;2023-10-19T07:34:23;9.80;;;5.97;;
39410;SDS011;26579;43.238;23.124;2023-10-19T07:36:48;10.27;;;6.25;;
39410;SDS011;26579;43.238;23.124;2023-10-19T07:39:14;10.35;;;5.70;;
39410;SDS011;26579;43.238;23.124;2023-10-19T07:41:40;9.35;;;6.45;;
39410;SDS011;26579;43.238;23.124;2023-10-19T07:44:06;11.80;;;6.28;;
39410;SDS011;26579;43.238;23.124;2023-10-19T07:46:31;12.52;;;6.95;;
39410;SDS011;26579;43.238;23.124;2023-10-19T07:48:57;10.05;;;7.47;;
39410;SDS011;26579;43.238;23.124;2023-10-19T07:51:23;9.50;;;5.93;;
39410;SDS011;26579;43.238;23.124;2023-10-19T07:53:49;10.63;;;5.97;;
39410;SDS011;26579;43.238;23.124;2023-10-19T07:56:14;10.23;;;6.10;;
39410;SDS011;26579;43.238;23.124;2023-10-19T07:58:40;18.77;;;16.05;;
39410;SDS011;26579;43.238;23.124;2023-10-19T08:01:05;13.07;;;10.25;;
39410;SDS011;26579;43.238;23.124;2023-10-19T08:03:31;14.68;;;8.00;;
39410;SDS011;26579;43.238;23.124;2023-10-19T08:05:57;13.57;;;8.18;;
39410;SDS011;26579;43.238;23.124;2023-10-19T08:08:22;12.05;;;7.60;;
39410;SDS011;26579;43.238;23.124;2023-10-19T08:10:48;45.15;;;26.65;;
39410;SDS011;26579;43.238;23.124;2023-10-19T08:13:14;14.23;;;9.35;;
39410;SDS011;26579;43.238;23.124;2023-10-19T08:15:39;14.18;;;8.00;;
39410;SDS011;26579;43.238;23.124;2023-10-19T08:18:05;9.98;;;6.78;;
39410;SDS011;26579;43.238;23.124;2023-10-19T08:20:31;9.68;;;6.82;;
39410;SDS011;26579;43.238;23.124;2023-10-19T08:22:57;9.25;;;7.30;;
39410;SDS011;26579;43.238;23.124;2023-10-19T08:25:24;12.15;;;6.85;;
39410;SDS011;26579;43.238;23.124;2023-10-19T08:27:50;15.80;;;11.88;;
39410;SDS011;26579;43.238;23.124;2023-10-19T08:30:17;13.23;;;8.98;;
39410;SDS011;26579;43.238;23.124;2023-10-19T08:32:44;12.32;;;7.15;;
39410;SDS011;26579;43.238;23.124;2023-10-19T08:35:10;7.47;;;4.97;;
39410;SDS011;26579;43.238;23.124;2023-10-19T08:37:35;7.13;;;5.03;;
39410;SDS011;26579;43.238;23.124;2023-10-19T08:40:01;6.90;;;5.00;;
39410;SDS011;26579;43.238;23.124;2023-10-19T08:42:27;10.70;;;6.45;;
39410;SDS011;26579;43.238;23.124;2023-10-19T08:44:52;9.35;;;6.25;;
39410;SDS011;26579;43.238;23.124;2023-10-19T08:47:18;10.02;;;7.05;;
39410;SDS011;26579;43.238;23.124;2023-10-19T08:49:45;10.38;;;6.78;;
39410;SDS011;26579;43.238;23.124;2023-10-19T08:52:10;10.35;;;6.72;;
39410;SDS011;26579;43.238;23.124;2023-10-19T08:54:39;9.43;;;6.70;;
39410;SDS011;26579;43.238;23.124;2023-10-19T08:57:04;14.23;;;6.85;;
39410;SDS011;26579;43.238;23.124;2023-10-19T08:59:30;11.73;;;6.97;;
39410;SDS011;26579;43.238;23.124;2023-10-19T09:02:00;11.93;;;8.07;;
39410;SDS011;26579;43.238;23.124;2023-10-19T09:04:26;13.85;;;7.65;;
39410;SDS011;26579;43.238;23.124;2023-10-19T09:06:53;19.83;;;7.85;;
39410;SDS011;26579;43.238;23.124;2023-10-19T09:09:19;11.60;;;6.75;;
39410;SDS011;26579;43.238;23.124;2023-10-19T09:11:47;10.05;;;7.05;;
39410;SDS011;26579;43.238;23.124;2023-10-19T09:14:14;11.77;;;6.88;;
39410;SDS011;26579;43.238;23.124;2023-10-19T09:16:52;10.30;;;6.35;;
39410;SDS011;26579;43.238;23.124;2023-10-19T09:19:19;9.77;;;6.28;;
39410;SDS011;26579;43.238;23.124;2023-10-19T09:21:45;17.70;;;6.78;;
39410;SDS011;26579;43.238;23.124;2023-10-19T09:24:11;9.38;;;6.47;;
39410;SDS011;26579;43.238;23.124;2023-10-19T09:26:37;9.60;;;6.82;;
39410;SDS011;26579;43.238;23.124;2023-10-19T09:29:03;9.48;;;7.07;;
39410;SDS011;26579;43.238;23.124;2023-10-19T09:31:28;11.23;;;6.22;;
39410;SDS011;26579;43.238;23.124;2023-10-19T09:33:55;19.45;;;10.68;;
39410;SDS011;26579;43.238;23.124;2023-10-19T09:36:21;12.35;;;7.75;;
39410;SDS011;26579;43.238;23.124;2023-10-19T09:38:50;8.90;;;6.10;;
39410;SDS011;26579;43.238;23.124;2023-10-19T09:41:22;8.43;;;5.72;;
39410;SDS011;26579;43.238;23.124;2023-10-19T09:43:49;8.55;;;5.38;;
39410;SDS011;26579;43.238;23.124;2023-10-19T09:46:22;9.52;;;6.55;;
39410;SDS011;26579;43.238;23.124;2023-10-19T09:48:51;9.18;;;5.32;;
39410;SDS011;26579;43.238;23.124;2023-10-19T09:51:17;8.48;;;5.82;;
39410;SDS011;26579;43.238;23.124;2023-10-19T09:53:45;14.63;;;9.18;;
39410;SDS011;26579;43.238;23.124;2023-10-19T09:56:19;14.20;;;8.65;;
39410;SDS011;26579;43.238;23.124;2023-10-19T09:59:11;11.68;;;6.68;;
39410;SDS011;26579;43.238;23.124;2023-10-19T10:04:35;13.45;;;7.90;;
39410;SDS011;26579;43.238;23.124;2023-10-19T10:07:01;14.65;;;8.15;;
39410;SDS011;26579;43.238;23.124;2023-10-19T10:09:29;11.95;;;6.72;;
39410;SDS011;26579;43.238;23.124;2023-10-19T10:11:55;13.60;;;6.90;;
39410;SDS011;26579;43.238;23.124;2023-10-19T10:14:22;16.08;;;8.88;;
39410;SDS011;26579;43.238;23.124;2023-10-19T10:16:51;10.52;;;6.78;;
39410;SDS011;26579;43.238;23.124;2023-10-19T10:19:27;9.52;;;7.22;;
39410;SDS011;26579;43.238;23.124;2023-10-19T10:24:53;10.85;;;5.68;;
39410;SDS011;26579;43.238;23.124;2023-10-19T10:27:19;9.63;;;6.20;;
39410;SDS011;26579;43.238;23.124;2023-10-19T10:29:58;9.35;;;5.53;;
39410;SDS011;26579;43.238;23.124;2023-10-19T10:32:44;8.88;;;5.07;;
39410;SDS011;26579;43.238;23.124;2023-10-19T10:38:10;10.43;;;6.22;;
39410;SDS011;26579;43.238;23.124;2023-10-19T10:40:43;9.95;;;6.50;;
39410;SDS011;26579;43.238;23.124;2023-10-19T10:43:09;10.25;;;7.57;;
39410;SDS011;26579;43.238;23.124;2023-10-19T10:45:34;11.88;;;6.20;;
39410;SDS011;26579;43.238;23.124;2023-10-19T10:48:00;9.65;;;5.95;;
39410;SDS011;26579;43.238;23.124;2023-10-19T10:50:26;10.65;;;6.07;;
39410;SDS011;26579;43.238;23.124;2023-10-19T10:52:52;11.88;;;7.18;;
39410;SDS011;26579;43.238;23.124;2023-10-19T10:55:17;7.68;;;5.72;;
39410;SDS011;26579;43.238;23.124;2023-10-19T10:57:43;9.88;;;5.75;;
39410;SDS011;26579;43.238;23.124;2023-10-19T11:00:13;8.27;;;5.85;;
39410;SDS011;26579;43.238;23.124;2023-10-19T11:02:39;8.52;;;5.68;;
39410;SDS011;26579;43.238;23.124;2023-10-19T11:05:05;10.68;;;6.30;;
39410;SDS011;26579;43.238;23.124;2023-10-19T11:07:31;9.25;;;5.80;;
39410;SDS011;26579;43.238;23.124;2023-10-19T11:09:57;8.70;;;5.90;;
39410;SDS011;26579;43.238;23.124;2023-10-19T11:12:22;9.13;;;6.07;;
39410;SDS011;26579;43.238;23.124;2023-10-19T11:14:55;7.80;;;5.40;;
39410;SDS011;26579;43.238;23.124;2023-10-19T11:17:21;13.75;;;6.60;;
39410;SDS011;26579;43.238;23.124;2023-10-19T11:19:47;12.30;;;5.43;;
39410;SDS011;26579;43.238;23.124;2023-10-19T11:22:13;8.73;;;6.00;;
39410;SDS011;26579;43.238;23.124;2023-10-19T11:24:38;8.00;;;5.75;;
39410;SDS011;26579;43.238;23.124;2023-10-19T11:27:04;7.68;;;5.55;;
39410;SDS011;26579;43.238;23.124;2023-10-19T11:29:30;9.50;;;6.15;;
39410;SDS011;26579;43.238;23.124;2023-10-19T11:31:59;9.23;;;5.93;;
39410;SDS011;26579;43.238;23.124;2023-10-19T11:34:25;13.18;;;6.82;;
39410;SDS011;26579;43.238;23.124;2023-10-19T11:36:54;8.90;;;5.82;;
39410;SDS011;26579;43.238;23.124;2023-10-19T11:39:22;9.13;;;6.30;;
39410;SDS011;26579;43.238;23.124;2023-10-19T11:41:48;13.52;;;8.25;;
39410;SDS011;26579;43.238;23.124;2023-10-19T11:44:13;10.57;;;5.97;;
39410;SDS011;26579;43.238;23.124;2023-10-19T11:46:39;11.23;;;8.10;;
39410;SDS011;26579;43.238;23.124;2023-10-19T11:49:05;16.55;;;6.15;;
39410;SDS011;26579;43.238;23.124;2023-10-19T11:51:31;7.95;;;5.07;;
39410;SDS011;26579;43.238;23.124;2023-10-19T11:53:56;11.32;;;9.25;;
39410;SDS011;26579;43.238;23.124;2023-10-19T11:56:22;9.57;;;6.75;;
39410;SDS011;26579;43.238;23.124;2023-10-19T11:58:48;7.78;;;6.32;;
39410;SDS011;26579;43.238;23.124;2023-10-19T12:01:13;9.45;;;5.55;;
39410;SDS011;26579;43.238;23.124;2023-10-19T12:03:39;7.82;;;5.63;;
39410;SDS011;26579;43.238;23.124;2023-10-19T12:06:09;7.13;;;4.75;;
39410;SDS011;26579;43.238;23.124;2023-10-19T12:08:35;6.47;;;4.47;;
39410;SDS011;26579;43.238;23.124;2023-10-19T12:11:02;8.43;;;6.03;;
39410;SDS011;26579;43.238;23.124;2023-10-19T12:13:29;10.95;;;6.30;;
39410;SDS011;26579;43.238;23.124;2023-10-19T12:15:56;8.10;;;6.20;;
39410;SDS011;26579;43.238;23.124;2023-10-19T12:18:22;9.18;;;6.35;;
39410;SDS011;26579;43.238;23.124;2023-10-19T12:20:48;7.70;;;5.50;;
39410;SDS011;26579;43.238;23.124;2023-10-19T12:23:13;12.02;;;5.88;;
39410;SDS011;26579;43.238;23.124;2023-10-19T12:25:40;10.60;;;5.70;;
39410;SDS011;26579;43.238;23.124;2023-10-19T12:28:05;18.55;;;9.88;;
39410;SDS011;26579;43.238;23.124;2023-10-19T12:30:31;13.35;;;7.38;;
39410;SDS011;26579;43.238;23.124;2023-10-19T12:32:59;11.93;;;7.95;;
39410;SDS011;26579;43.238;23.124;2023-10-19T12:35:26;9.57;;;6.65;;
39410;SDS011;26579;43.238;23.124;2023-10-19T12:37:51;7.90;;;5.90;;
39410;SDS011;26579;43.238;23.124;2023-10-19T12:40:17;9.98;;;6.00;;
39410;SDS011;26579;43.238;23.124;2023-10-19T12:42:43;8.20;;;5.75;;
39410;SDS011;26579;43.238;23.124;2023-10-19T12:45:09;7.95;;;3.92;;
39410;SDS011;26579;43.238;23.124;2023-10-19T12:47:35;6.35;;;4.43;;
39410;SDS011;26579;43.238;23.124;2023-10-19T12:50:00;7.20;;;4.22;;
39410;SDS011;26579;43.238;23.124;2023-10-19T12:52:26;8.38;;;4.63;;
39410;SDS011;26579;43.238;23.124;2023-10-19T12:54:52;9.35;;;4.70;;
39410;SDS011;26579;43.238;23.124;2023-10-19T12:57:18;8.20;;;4.65;;
39410;SDS011;26579;43.238;23.124;2023-10-19T12:59:43;5.90;;;4.03;;
39410;SDS011;26579;43.238;23.124;2023-10-19T13:02:09;5.82;;;4.75;;
39410;SDS011;26579;43.238;23.124;2023-10-19T13:04:35;9.52;;;6.95;;
39410;SDS011;26579;43.238;23.124;2023-10-19T13:07:01;9.30;;;4.95;;
39410;SDS011;26579;43.238;23.124;2023-10-19T13:09:26;8.43;;;4.65;;
39410;SDS011;26579;43.238;23.124;2023-10-19T13:11:52;6.82;;;5.15;;
39410;SDS011;26579;43.238;23.124;2023-10-19T13:14:18;6.72;;;4.78;;
39410;SDS011;26579;43.238;23.124;2023-10-19T13:16:44;8.48;;;5.13;;
39410;SDS011;26579;43.238;23.124;2023-10-19T13:19:09;7.30;;;4.45;;
39410;SDS011;26579;43.238;23.124;2023-10-19T13:21:35;7.18;;;5.38;;
39410;SDS011;26579;43.238;23.124;2023-10-19T13:24:01;10.80;;;5.45;;
39410;SDS011;26579;43.238;23.124;2023-10-19T13:26:26;7.57;;;4.80;;
39410;SDS011;26579;43.238;23.124;2023-10-19T13:28:52;6.05;;;4.85;;
39410;SDS011;26579;43.238;23.124;2023-10-19T13:31:18;10.45;;;4.90;;
39410;SDS011;26579;43.238;23.124;2023-10-19T13:33:43;13.85;;;5.78;;
39410;SDS011;26579;43.238;23.124;2023-10-19T13:36:09;9.90;;;6.65;;
39410;SDS011;26579;43.238;23.124;2023-10-19T13:38:35;10.48;;;6.75;;
39410;SDS011;26579;43.238;23.124;2023-10-19T13:41:04;9.45;;;6.05;;
39410;SDS011;26579;43.238;23.124;2023-10-19T13:43:33;10.82;;;5.15;;
39410;SDS011;26579;43.238;23.124;2023-10-19T13:46:17;7.82;;;5.10;;
39410;SDS011;26579;43.238;23.124;2023-10-19T13:48:43;9.48;;;5.43;;
39410;SDS011;26579;43.238;23.124;2023-10-19T13:51:08;7.90;;;5.25;;
39410;SDS011;26579;43.238;23.124;2023-10-19T13:53:34;9.60;;;5.15;;
39410;SDS011;26579;43.238;23.124;2023-10-19T13:56:00;10.57;;;5.25;;
39410;SDS011;26579;43.238;23.124;2023-10-19T13:58:25;8.50;;;5.75;;
39410;SDS011;26579;43.238;23.124;2023-10-19T14:00:51;7.47;;;5.40;;
39410;SDS011;26579;43.238;23.124;2023-10-19T14:03:17;9.02;;;5.25;;
39410;SDS011;26579;43.238;23.124;2023-10-19T14:05:43;8.85;;;5.30;;
39410;SDS011;26579;43.238;23.124;2023-10-19T14:08:10;9.68;;;5.82;;
39410;SDS011;26579;43.238;23.124;2023-10-19T14:10:36;10.27;;;6.03;;
39410;SDS011;26579;43.238;23.124;2023-10-19T14:13:02;9.48;;;6.65;;
39410;SDS011;26579;43.238;23.124;2023-10-19T14:15:28;10.05;;;6.13;;
39410;SDS011;26579;43.238;23.124;2023-10-19T14:17:55;14.30;;;5.93;;
39410;SDS011;26579;43.238;23.124;2023-10-19T14:20:22;8.52;;;5.68;;
39410;SDS011;26579;43.238;23.124;2023-10-19T14:22:48;9.82;;;5.30;;
39410;SDS011;26579;43.238;23.124;2023-10-19T14:25:15;8.35;;;4.72;;
39410;SDS011;26579;43.238;23.124;2023-10-19T14:27:44;9.18;;;4.97;;
39410;SDS011;26579;43.238;23.124;2023-10-19T14:30:11;26.63;;;5.57;;